createdAt,value
2024-03-18T00:04:30.836Z,67
2024-03-18T00:14:30.863Z,65
2024-03-18T00:24:30.798Z,64
2024-03-18T00:34:30.783Z,64
2024-03-18T00:44:30.855Z,66
2024-03-18T00:54:30.872Z,63
2024-03-18T01:04:30.804Z,63
2024-03-18T01:14:30.800Z,62
2024-03-18T01:24:30.789Z,61
2024-03-18T01:34:30.799Z,58
2024-03-18T01:44:30.764Z,57
2024-03-18T01:54:30.797Z,58
2024-03-18T02:04:30.724Z,58
2024-03-18T02:14:30.780Z,57
2024-03-18T02:24:30.830Z,57
2024-03-18T02:34:30.933Z,56
2024-03-18T02:44:30.760Z,53
2024-03-18T02:54:30.811Z,53
2024-03-18T03:04:30.771Z,54
2024-03-18T03:14:30.833Z,56
2024-03-18T03:24:30.813Z,53
2024-03-18T03:34:30.735Z,53
2024-03-18T03:44:30.869Z,51
2024-03-18T03:54:30.774Z,51
2024-03-18T04:04:30.787Z,51
2024-03-18T04:14:30.763Z,50
2024-03-18T04:24:30.881Z,50
2024-03-18T04:34:30.770Z,50
2024-03-18T04:54:30.843Z,49
2024-03-18T05:04:30.842Z,48
2024-03-18T05:14:30.744Z,48
2024-03-18T05:24:30.753Z,48
2024-03-18T05:34:30.767Z,48
2024-03-18T05:44:30.747Z,46
2024-03-18T05:54:30.803Z,47
2024-03-18T06:04:30.709Z,50
2024-03-18T06:14:30.815Z,53
2024-03-18T06:24:30.757Z,56
2024-03-18T06:34:30.877Z,60
2024-03-18T06:44:30.827Z,69
2024-03-18T07:04:30.729Z,80
2024-03-18T07:14:30.603Z,81
2024-03-18T07:24:30.593Z,84
2024-03-18T07:34:30.585Z,82
2024-03-18T07:44:30.580Z,83
2024-03-18T07:54:30.599Z,84
2024-03-18T08:04:30.801Z,87
2024-03-18T08:14:30.676Z,93
2024-03-18T08:24:30.713Z,96
2024-03-18T08:34:30.894Z,97
2024-03-18T08:44:30.759Z,99
2024-03-18T08:54:30.733Z,98
2024-03-18T09:04:30.687Z,100
2024-03-18T09:14:30.817Z,100
2024-03-18T09:24:30.777Z,100
2024-03-18T09:34:30.703Z,99
2024-03-18T09:44:30.639Z,99
2024-03-18T09:54:30.772Z,99
2024-03-18T10:04:30.485Z,92
2024-03-18T10:14:30.465Z,92
2024-03-18T10:24:30.519Z,89
2024-03-18T10:34:30.698Z,90
2024-03-18T10:44:30.577Z,87
2024-03-18T10:54:30.575Z,90
2024-03-18T11:04:30.572Z,87
2024-03-18T11:14:30.585Z,78
2024-03-18T11:24:30.679Z,83
2024-03-18T11:34:30.402Z,80
2024-03-18T11:44:30.402Z,84
2024-03-18T11:54:30.406Z,84
2024-03-18T12:04:30.526Z,85
2024-03-18T12:14:30.506Z,83
2024-03-18T12:24:30.509Z,85
2024-03-18T12:34:30.466Z,84
2024-03-18T12:44:30.564Z,83
2024-03-18T12:54:30.377Z,83
2024-03-18T13:04:30.441Z,84
2024-03-18T13:14:30.451Z,84
2024-03-18T13:24:30.351Z,89
2024-03-18T13:34:30.347Z,93
2024-03-18T13:44:30.462Z,95
2024-03-18T13:54:30.435Z,95
2024-03-18T14:04:30.397Z,99
2024-03-18T14:14:30.433Z,98
2024-03-18T14:24:30.421Z,98
2024-03-18T14:34:30.315Z,99
2024-03-18T14:44:30.256Z,99
2024-03-18T14:54:30.250Z,100
2024-03-18T15:04:30.465Z,100
2024-03-18T15:14:30.250Z,100
2024-03-18T15:24:30.471Z,100
2024-03-18T15:34:30.253Z,100
2024-03-18T15:44:30.258Z,100
2024-03-18T15:54:30.269Z,100
2024-03-18T16:04:30.248Z,100
2024-03-18T16:14:30.349Z,100
2024-03-18T16:24:30.486Z,99
2024-03-18T16:34:30.417Z,97
2024-03-18T16:44:30.321Z,94
2024-03-18T16:54:30.234Z,93
2024-03-18T17:04:30.220Z,89
2024-03-18T17:14:30.201Z,88
2024-03-18T17:24:30.224Z,85
2024-03-18T17:34:30.220Z,83
2024-03-18T17:44:30.455Z,82
2024-03-18T17:54:30.273Z,75
2024-03-18T18:04:30.185Z,64
2024-03-18T18:14:30.184Z,66
2024-03-18T18:24:30.182Z,67
2024-03-18T18:34:30.158Z,65
2024-03-18T18:44:30.238Z,65
2024-03-18T18:54:30.257Z,62
2024-03-18T19:04:30.115Z,60
2024-03-18T19:14:30.121Z,56
2024-03-18T19:24:30.177Z,55
2024-03-18T19:34:30.241Z,49
2024-03-18T19:44:30.430Z,44
2024-03-18T19:54:30.353Z,40
2024-03-18T20:04:30.269Z,38
2024-03-18T20:14:30.282Z,37
2024-03-18T20:24:30.255Z,37
2024-03-18T20:34:30.244Z,38
2024-03-18T20:44:30.197Z,37
2024-03-18T20:54:30.213Z,38
2024-03-18T21:04:30.235Z,38
2024-03-18T21:14:30.228Z,39
2024-03-18T21:24:30.207Z,39
2024-03-18T21:34:30.319Z,40
2024-03-18T21:44:30.220Z,39
2024-03-18T21:54:30.315Z,41
2024-03-18T22:04:30.232Z,46
2024-03-18T22:14:31.821Z,45
2024-03-18T22:24:30.188Z,44
2024-03-18T22:34:30.267Z,44
2024-03-18T22:44:30.578Z,42
2024-03-18T22:54:30.171Z,43
2024-03-18T23:04:30.405Z,43
2024-03-18T23:14:30.271Z,46
2024-03-18T23:24:30.345Z,44
2024-03-18T23:34:30.250Z,44
2024-03-18T23:44:30.181Z,46
2024-03-18T23:54:30.186Z,44
